Time;durP1;ratioP1;P1;durP2;ratioP2;P2;SDS_P1;SDS_P2;PMS_P1;PMS_P2;Temp;Humidity;BMP_temperature;BMP_pressure;BME280_temperature;BME280_humidity;BME280_pressure;Samples;Min_cycle;Max_cycle;Signal;HPM_P1;HPM_P2
2021/12/23 00:00:07;;;;;;;52.70;31.75;;;;;;;-1.03;81.55;101873.42;1680958;85;21092;-78
2021/12/23 00:02:36;;;;;;;50.65;31.15;;;;;;;-1.00;81.54;101874.97;1679926;84;21064;-78
2021/12/23 00:05:07;;;;;;;52.35;31.12;;;;;;;-0.99;81.54;101868.14;1680349;83;21083;-88
2021/12/23 00:07:34;;;;;;;53.02;31.85;;;;;;;-1.01;81.48;101865.81;1680718;83;21644;-78
2021/12/23 00:10:07;;;;;;;53.90;32.20;;;;;;;-1.02;81.52;101858.81;1680295;85;22644;-78
2021/12/23 00:12:40;;;;;;;48.45;29.00;;;;;;;-1.02;81.52;101854.55;1680088;84;21160;-77
2021/12/23 00:15:16;;;;;;;52.33;30.17;;;;;;;-1.03;81.49;101857.92;1680144;85;21604;-77
2021/12/23 00:25:20;;;;;;;50.40;31.23;;;;;;;-1.07;81.50;101842.92;1680357;85;21041;-88
2021/12/23 00:27:47;;;;;;;51.37;32.08;;;;;;;-1.07;81.55;101836.45;1680649;85;21064;-78
2021/12/23 00:30:14;;;;;;;51.18;31.33;;;;;;;-1.07;81.54;101835.16;1681138;85;21045;-89
2021/12/23 00:32:40;;;;;;;48.95;28.80;;;;;;;-1.06;81.62;101834.77;1681242;85;21080;-89
2021/12/23 00:35:09;;;;;;;51.02;31.12;;;;;;;-1.04;81.61;101831.54;1681194;85;21765;-88
2021/12/23 00:37:40;;;;;;;44.60;29.00;;;;;;;-1.04;81.56;101834.52;1681048;84;21052;-78
2021/12/23 00:40:06;;;;;;;52.55;30.92;;;;;;;-1.05;81.56;101831.03;1680125;83;21136;-78
2021/12/23 00:42:33;;;;;;;51.83;31.52;;;;;;;-1.07;81.49;101831.29;1680095;85;21194;-78
2021/12/23 00:45:00;;;;;;;56.90;30.70;;;;;;;-1.07;81.54;101826.48;1680186;85;21600;-78
2021/12/23 00:47:26;;;;;;;55.23;31.82;;;;;;;-1.05;81.58;101821.99;1680168;83;21729;-78
2021/12/23 00:49:53;;;;;;;49.30;29.25;;;;;;;-1.03;81.60;101816.97;1680167;85;21076;-78
2021/12/23 00:52:27;;;;;;;50.08;30.08;;;;;;;-1.03;81.58;101817.86;1680074;85;21124;-80
2021/12/23 00:54:48;;;;;;;50.85;28.80;;;;;;;-1.00;81.59;101814.62;1675089;83;21600;-78
2021/12/23 00:57:15;;;;;;;51.75;30.15;;;;;;;-0.98;81.64;101813.09;1668249;85;21068;-78
2021/12/23 00:59:42;;;;;;;53.15;30.57;;;;;;;-0.95;81.68;101817.25;1669218;85;21787;-91
2021/12/23 01:02:12;;;;;;;49.15;30.00;;;;;;;-0.93;81.59;101809.63;1669438;85;21255;-78
2021/12/23 01:04:38;;;;;;;52.93;29.42;;;;;;;-0.92;81.56;101808.48;1668402;85;21578;-78
2021/12/23 01:07:05;;;;;;;52.00;29.95;;;;;;;-0.91;81.53;101798.64;1668939;85;21092;-88
2021/12/23 01:09:31;;;;;;;48.98;29.75;;;;;;;-0.89;81.57;101804.85;1668955;85;21080;-78
2021/12/23 01:11:58;;;;;;;48.73;28.02;;;;;;;-0.87;81.54;101807.19;1668658;85;21767;-78
2021/12/23 01:14:28;;;;;;;47.98;29.63;;;;;;;-0.85;81.49;101807.32;1668880;85;21104;-88
2021/12/23 01:19:41;;;;;;;47.17;28.15;;;;;;;-0.83;81.47;101792.85;1663765;86;21671;-90
2021/12/23 01:22:08;;;;;;;52.78;30.62;;;;;;;-0.83;81.47;101781.22;1697783;84;21081;-89
2021/12/23 01:24:35;;;;;;;60.28;34.67;;;;;;;-0.82;81.46;101782.66;1703225;82;21768;-90
2021/12/23 01:27:02;;;;;;;55.05;31.77;;;;;;;-0.81;81.46;101777.08;1713161;83;21075;-90
2021/12/23 01:29:28;;;;;;;52.43;30.40;;;;;;;-0.77;81.48;101775.28;1713166;83;21080;-79
2021/12/23 01:31:55;;;;;;;45.50;29.12;;;;;;;-0.77;81.49;101771.80;1712190;83;21064;-79
2021/12/23 01:34:21;;;;;;;50.45;30.52;;;;;;;-0.76;81.46;101772.33;1712263;82;21599;-78
2021/12/23 01:36:48;;;;;;;66.95;38.20;;;;;;;-0.75;81.49;101764.72;1712657;83;21307;-78
2021/12/23 01:39:15;;;;;;;73.28;43.00;;;;;;;-0.73;81.49;101768.34;1712743;83;21068;-88
2021/12/23 01:41:41;;;;;;;385.52;150.80;;;;;;;-0.72;81.34;101764.95;1712646;83;21083;-78
2021/12/23 01:44:08;;;;;;;243.25;102.97;;;;;;;-0.72;81.36;101757.20;1712419;83;21591;-78
2021/12/23 01:46:35;;;;;;;209.85;86.75;;;;;;;-0.69;81.44;101760.06;1712472;83;21113;-88
2021/12/23 01:49:01;;;;;;;337.55;137.37;;;;;;;-0.71;81.42;101747.39;1713345;82;21702;-89
2021/12/23 01:51:28;;;;;;;265.30;111.25;;;;;;;-0.70;81.37;101742.72;1713155;82;21620;-79
2021/12/23 01:53:55;;;;;;;197.72;87.35;;;;;;;-0.70;81.44;101743.12;1713271;82;21072;-88
2021/12/23 01:56:23;;;;;;;177.45;83.03;;;;;;;-0.71;81.38;101739.64;1719477;82;21614;-78
2021/12/23 01:58:50;;;;;;;121.72;58.92;;;;;;;-0.70;81.29;101741.83;1692923;83;21576;-89
2021/12/23 02:01:17;;;;;;;105.47;54.33;;;;;;;-0.71;81.29;101739.64;1721482;83;22597;-88
2021/12/23 02:03:44;;;;;;;110.45;56.25;;;;;;;-0.69;81.31;101734.60;1720435;83;21099;-78
2021/12/23 02:06:10;;;;;;;69.80;39.45;;;;;;;-0.68;81.30;101735.10;1721155;81;21075;-89
2021/12/23 02:08:38;;;;;;;57.43;33.73;;;;;;;-0.70;81.27;101727.21;1721333;83;21083;-89
2021/12/23 02:11:06;;;;;;;64.95;42.50;;;;;;;-0.72;81.26;101731.75;1720634;83;21060;-78
2021/12/23 02:13:33;;;;;;;68.12;42.08;;;;;;;-0.75;81.21;101723.35;1720184;82;21883;-78
2021/12/23 02:16:00;;;;;;;64.62;41.68;;;;;;;-0.78;81.15;101716.61;1720012;82;21067;-78
2021/12/23 02:18:27;;;;;;;68.12;41.08;;;;;;;-0.80;81.11;101712.59;1726946;81;21221;-78
2021/12/23 02:20:54;;;;;;;66.42;44.53;;;;;;;-0.81;81.15;101715.97;1741739;81;21683;-77
2021/12/23 02:23:21;;;;;;;74.50;45.50;;;;;;;-0.83;81.18;101709.73;1719293;82;21043;-77
2021/12/23 02:25:47;;;;;;;80.83;50.10;;;;;;;-0.84;81.09;101707.94;1708068;83;21816;-79
2021/12/23 02:28:18;;;;;;;58.28;36.70;;;;;;;-0.85;81.11;101700.05;1718361;83;21024;-89
2021/12/23 02:30:45;;;;;;;47.33;31.10;;;;;;;-0.86;81.13;101694.38;1723853;83;21573;-78
2021/12/23 02:33:11;;;;;;;52.25;33.13;;;;;;;-0.88;81.13;101686.85;1723621;82;21055;-88
2021/12/23 02:35:38;;;;;;;50.25;30.88;;;;;;;-0.93;81.06;101680.41;1723484;81;21155;-78
2021/12/23 02:38:05;;;;;;;53.30;31.23;;;;;;;-0.95;81.06;101688.02;1723284;83;21793;-89
2021/12/23 02:40:40;;;;;;;52.90;32.65;;;;;;;-0.96;81.10;101678.45;1723290;81;21079;-89
2021/12/23 02:43:14;;;;;;;49.93;31.02;;;;;;;-0.98;81.05;101674.83;1723469;81;21087;-89
2021/12/23 02:45:42;;;;;;;50.50;31.05;;;;;;;-1.00;81.10;101669.91;1723919;82;21169;-89
2021/12/23 02:48:17;;;;;;;53.30;31.80;;;;;;;-1.01;81.11;101668.13;1668387;84;21080;-89
2021/12/23 02:50:48;;;;;;;57.53;34.78;;;;;;;-1.04;81.05;101666.55;1696183;83;22591;-79
2021/12/23 02:53:14;;;;;;;51.08;30.90;;;;;;;-1.07;81.10;101658.16;1667273;85;21076;-89
2021/12/23 02:55:44;;;;;;;54.48;31.07;;;;;;;-1.05;81.20;101659.20;1696035;83;21149;-78
2021/12/23 02:58:11;;;;;;;55.98;35.30;;;;;;;-1.03;81.27;101651.59;1695417;84;21057;-78
2021/12/23 03:00:39;;;;;;;82.10;46.85;;;;;;;-1.03;81.24;101645.12;1695469;84;21176;-78
2021/12/23 03:03:05;;;;;;;109.67;67.40;;;;;;;-1.06;81.12;101636.70;1695389;84;21771;-87
2021/12/23 03:05:32;;;;;;;82.17;57.20;;;;;;;-1.09;81.06;101639.05;1689635;82;21065;-89
2021/12/23 03:08:00;;;;;;;80.15;60.80;;;;;;;-1.11;81.09;101637.08;1711209;83;21083;-90
2021/12/23 03:10:26;;;;;;;72.32;51.05;;;;;;;-1.13;81.13;101627.01;1711010;82;21119;-89
2021/12/23 03:12:53;;;;;;;63.17;39.90;;;;;;;-1.17;81.05;101628.42;1711059;83;21569;-90
2021/12/23 03:15:20;;;;;;;56.20;34.83;;;;;;;-1.18;81.08;101621.46;1711192;82;21844;-89
2021/12/23 03:17:47;;;;;;;51.60;32.33;;;;;;;-1.18;81.13;101617.19;1711052;83;21116;-90
2021/12/23 03:20:14;;;;;;;54.67;32.85;;;;;;;-1.20;81.13;101610.09;1710400;82;21084;-78
2021/12/23 03:22:40;;;;;;;49.70;33.02;;;;;;;-1.20;81.13;101610.09;1710022;82;21111;-78
2021/12/23 03:25:08;;;;;;;52.03;34.15;;;;;;;-1.22;81.10;101606.08;1710262;82;21599;-78
2021/12/23 03:27:34;;;;;;;53.65;32.10;;;;;;;-1.22;81.09;101601.28;1710084;82;21763;-79
2021/12/23 03:30:01;;;;;;;53.50;32.33;;;;;;;-1.24;81.10;101605.05;1709811;82;21076;-79
2021/12/23 03:32:28;;;;;;;50.75;32.75;;;;;;;-1.25;81.13;101595.87;1710409;82;22307;-90
2021/12/23 03:34:54;;;;;;;52.10;32.45;;;;;;;-1.24;81.15;101592.49;1710755;83;21279;-90
2021/12/23 03:37:21;;;;;;;51.68;31.02;;;;;;;-1.27;81.04;101580.62;1710842;82;21091;-89
2021/12/23 03:39:51;;;;;;;52.55;32.67;;;;;;;-1.29;81.10;101573.14;1710883;82;21743;-78
2021/12/23 03:42:16;;;;;;;55.52;31.82;;;;;;;-1.29;81.08;101575.33;1710213;83;21087;-90
2021/12/23 03:44:43;;;;;;;54.40;32.23;;;;;;;-1.29;81.07;101574.44;1710989;83;21083;-90
2021/12/23 03:47:09;;;;;;;56.83;32.65;;;;;;;-1.31;81.02;101572.11;1710737;83;21494;-89
2021/12/23 03:49:36;;;;;;;55.20;32.78;;;;;;;-1.32;81.02;101572.86;1710767;82;21075;-78
2021/12/23 03:52:03;;;;;;;55.85;33.18;;;;;;;-1.33;81.05;101570.68;1710468;83;21772;-79
2021/12/23 03:54:30;;;;;;;52.38;33.28;;;;;;;-1.32;81.01;101570.28;1710230;82;21091;-79
2021/12/23 03:56:56;;;;;;;56.75;33.85;;;;;;;-1.35;80.96;101559.31;1696515;82;21057;-90
2021/12/23 03:59:23;;;;;;;56.37;32.83;;;;;;;-1.38;80.99;101559.94;1695331;84;21336;-90
2021/12/23 04:01:50;;;;;;;58.38;33.92;;;;;;;-1.38;81.01;101555.16;1695071;83;21136;-89
2021/12/23 04:04:16;;;;;;;57.05;34.00;;;;;;;-1.39;80.99;101557.22;1695732;84;21762;-89
2021/12/23 04:06:43;;;;;;;53.23;32.33;;;;;;;-1.42;81.05;101550.12;1695053;83;21544;-90
2021/12/23 04:09:10;;;;;;;58.98;34.48;;;;;;;-1.44;80.94;101554.25;1694953;82;21054;-89
2021/12/23 04:11:36;;;;;;;57.90;32.60;;;;;;;-1.49;80.96;101552.95;1694616;83;21618;-79
2021/12/23 04:14:03;;;;;;;60.43;35.98;;;;;;;-1.49;80.98;101549.47;1694668;82;21082;-79
2021/12/23 04:16:30;;;;;;;62.17;36.38;;;;;;;-1.53;80.97;101548.30;1695624;83;21739;-90
2021/12/23 04:18:57;;;;;;;61.60;34.90;;;;;;;-1.51;81.08;101545.45;1695465;84;21365;-78
2021/12/23 04:21:23;;;;;;;62.58;35.63;;;;;;;-1.50;81.06;101543.77;1694643;83;21049;-78
2021/12/23 04:23:50;;;;;;;61.70;36.45;;;;;;;-1.52;81.10;101547.55;1694533;83;21163;-78
2021/12/23 04:26:17;;;;;;;57.60;36.25;;;;;;;-1.52;81.07;101547.55;1694584;84;21082;-78
2021/12/23 04:28:47;;;;;;;55.52;34.18;;;;;;;-1.54;81.03;101537.83;1694412;83;21742;-78
2021/12/23 04:31:17;;;;;;;55.03;33.67;;;;;;;-1.52;81.12;101538.87;1695528;84;21574;-90
2021/12/23 04:33:46;;;;;;;57.95;35.17;;;;;;;-1.54;81.03;101532.67;1695077;83;21097;-78
2021/12/23 04:36:12;;;;;;;55.92;33.73;;;;;;;-1.54;81.06;101532.27;1694116;82;21006;-78
2021/12/23 04:38:41;;;;;;;64.00;36.38;;;;;;;-1.55;81.06;101527.00;1669130;84;36611;-78
2021/12/23 04:41:08;;;;;;;57.95;34.55;;;;;;;-1.52;81.13;101533.34;1694697;83;22643;-78
2021/12/23 04:43:34;;;;;;;61.28;35.80;;;;;;;-1.50;81.12;101526.98;1694697;83;21061;-78
2021/12/23 04:46:01;;;;;;;57.80;34.85;;;;;;;-1.51;81.02;101526.09;1694575;83;21157;-78
2021/12/23 04:48:28;;;;;;;62.38;35.92;;;;;;;-1.56;80.94;101517.04;1695175;82;21042;-90
2021/12/23 04:50:55;;;;;;;66.05;35.15;;;;;;;-1.57;80.92;101511.37;1695370;84;21218;-89
2021/12/23 04:53:21;;;;;;;64.07;34.85;;;;;;;-1.58;80.89;101506.97;1694769;83;21183;-78
2021/12/23 04:55:48;;;;;;;62.20;35.50;;;;;;;-1.62;80.95;101499.74;1694092;82;21073;-77
2021/12/23 04:58:15;;;;;;;57.60;34.33;;;;;;;-1.61;80.99;101501.17;1694126;84;21066;-78
2021/12/23 05:00:47;;;;;;;60.08;34.75;;;;;;;-1.61;80.96;101496.02;1694547;83;21077;-77
2021/12/23 05:03:11;;;;;;;70.87;39.23;;;;;;;-1.62;80.91;101495.48;1694389;82;21113;-77
2021/12/23 05:05:38;;;;;;;64.97;37.78;;;;;;;-1.67;80.83;101486.46;1694791;83;21791;-88
2021/12/23 05:08:05;;;;;;;57.43;36.63;;;;;;;-1.66;80.84;101489.94;1695455;83;21035;-88
2021/12/23 05:10:31;;;;;;;61.83;35.30;;;;;;;-1.67;80.90;101491.98;1694579;83;21081;-77
2021/12/23 05:12:59;;;;;;;58.10;35.43;;;;;;;-1.67;80.92;101487.75;1695110;83;21046;-89
2021/12/23 05:15:26;;;;;;;61.70;36.35;;;;;;;-1.65;80.97;101480.11;1695425;83;21089;-78
2021/12/23 05:17:52;;;;;;;64.75;36.15;;;;;;;-1.65;80.91;101480.11;1698174;84;21718;-78
2021/12/23 05:20:19;;;;;;;60.10;35.45;;;;;;;-1.64;80.87;101478.06;1694393;83;21126;-77
2021/12/23 05:22:48;;;;;;;65.35;35.63;;;;;;;-1.63;80.84;101477.30;1694548;83;21057;-77
2021/12/23 05:25:15;;;;;;;60.98;36.63;;;;;;;-1.66;80.75;101468.00;1694161;83;21143;-78
2021/12/23 05:27:41;;;;;;;62.95;37.28;;;;;;;-1.66;80.80;101464.13;1694424;84;21093;-78
2021/12/23 05:30:11;;;;;;;63.50;37.08;;;;;;;-1.67;80.75;101461.94;1695115;83;22543;-88
2021/12/23 05:32:38;;;;;;;58.58;34.92;;;;;;;-1.82;80.65;101429.63;1694111;83;21125;-78
2021/12/23 05:35:05;;;;;;;58.42;35.13;;;;;;;-1.70;80.73;101452.63;1694418;83;21074;-78
2021/12/23 05:37:32;;;;;;;65.17;38.67;;;;;;;-1.70;80.78;101447.86;1699566;83;21091;-86
2021/12/23 05:39:59;;;;;;;61.60;37.35;;;;;;;-1.66;80.78;101443.47;1700040;84;21141;-78
2021/12/23 05:42:26;;;;;;;67.90;40.43;;;;;;;-1.65;80.73;101446.55;1704390;82;21826;-80
2021/12/23 05:44:52;;;;;;;70.00;40.92;;;;;;;-1.64;80.70;101438.95;1729731;82;21083;-88
2021/12/23 05:47:19;;;;;;;67.92;39.30;;;;;;;-1.67;80.63;101424.88;1730475;82;21097;-88
2021/12/23 05:49:45;;;;;;;75.32;43.70;;;;;;;-1.65;80.53;101429.77;1730080;82;21099;-87
2021/12/23 05:52:12;;;;;;;73.95;42.43;;;;;;;-1.69;80.45;101429.00;1729960;82;21074;-88
2021/12/23 05:54:38;;;;;;;66.85;36.68;;;;;;;-1.70;80.55;101425.92;1729737;82;21790;-78
2021/12/23 05:57:05;;;;;;;64.60;38.17;;;;;;;-1.70;80.50;101413.91;1736004;82;21082;-77
2021/12/23 05:59:33;;;;;;;76.25;44.55;;;;;;;-1.70;80.54;101410.05;1739994;82;21086;-76
2021/12/23 06:02:00;;;;;;;65.75;38.98;;;;;;;-1.69;80.61;101409.64;1739714;81;21178;-76
2021/12/23 06:04:27;;;;;;;65.40;38.83;;;;;;;-1.68;80.66;101405.02;1740007;82;21074;-89
2021/12/23 06:06:54;;;;;;;70.03;43.08;;;;;;;-1.70;80.56;101397.53;1740169;82;21743;-88
2021/12/23 06:09:20;;;;;;;63.35;38.55;;;;;;;-1.69;80.54;101397.67;1740235;82;21328;-89
2021/12/23 06:11:47;;;;;;;64.90;38.63;;;;;;;-1.66;80.63;101400.88;1740224;82;21050;-89
2021/12/23 06:14:14;;;;;;;65.72;37.08;;;;;;;-1.67;80.49;101388.73;1740822;81;21000;-89
2021/12/23 06:16:40;;;;;;;56.65;34.98;;;;;;;-1.66;80.55;101385.39;1740525;81;21074;-90
2021/12/23 06:19:07;;;;;;;60.28;36.70;;;;;;;-1.64;80.56;101387.31;1740012;81;22323;-78
2021/12/23 06:21:33;;;;;;;59.27;35.85;;;;;;;-1.64;80.47;101389.90;1740064;81;21062;-78
2021/12/23 06:24:03;;;;;;;60.10;36.38;;;;;;;-1.64;80.49;101381.27;1740420;82;21066;-79
2021/12/23 06:26:28;;;;;;;64.12;35.28;;;;;;;-1.64;80.51;101375.70;1740548;81;21074;-87
2021/12/23 06:28:55;;;;;;;71.02;40.70;;;;;;;-1.65;80.44;101374.28;1710450;82;21123;-88
2021/12/23 06:31:24;;;;;;;104.55;58.58;;;;;;;-1.65;80.38;101376.86;1710493;83;21742;-79
2021/12/23 06:33:51;;;;;;;63.17;36.23;;;;;;;-1.67;80.31;101375.83;1710339;82;21083;-86
2021/12/23 06:36:17;;;;;;;77.17;43.83;;;;;;;-1.81;80.39;101343.31;1711000;82;21232;-86
2021/12/23 06:38:59;;;;;;;71.07;41.77;;;;;;;-1.84;80.38;101330.19;1714290;82;21099;-81
2021/12/23 06:41:26;;;;;;;81.55;44.73;;;;;;;-1.65;80.38;101361.01;1712717;83;21045;-80
2021/12/23 06:43:53;;;;;;;98.80;54.53;;;;;;;-1.65;80.34;101360.08;1667562;85;21754;-81
2021/12/23 06:46:20;;;;;;;85.72;48.17;;;;;;;-1.66;80.26;101358.30;1695616;83;21075;-82
2021/12/23 06:48:46;;;;;;;81.05;43.70;;;;;;;-1.69;80.31;101358.95;1695718;84;21120;-80
2021/12/23 06:51:13;;;;;;;83.75;46.88;;;;;;;-1.68;80.34;101357.27;1695808;84;21072;-80
2021/12/23 06:53:40;;;;;;;74.45;42.23;;;;;;;-1.69;80.36;101348.63;1695568;82;21145;-81
2021/12/23 06:56:07;;;;;;;80.03;44.63;;;;;;;-1.68;80.41;101347.83;1694958;83;21674;-87
2021/12/23 06:58:35;;;;;;;81.42;45.90;;;;;;;-1.67;80.42;101347.08;1688512;83;21119;-87
2021/12/23 07:01:02;;;;;;;101.55;52.83;;;;;;;-1.70;80.30;101340.75;1688414;83;21008;-81
2021/12/23 07:03:50;;;;;;;88.00;47.65;;;;;;;-1.73;80.29;101333.63;1687919;83;21083;-80
2021/12/23 07:06:06;;;;;;;103.78;55.70;;;;;;;-1.77;80.30;101338.03;1694016;82;21056;-86
2021/12/23 07:08:30;;;;;;;113.08;58.23;;;;;;;-1.77;80.35;101337.63;1690257;82;21778;-85
2021/12/23 07:10:57;;;;;;;124.87;63.17;;;;;;;-1.74;80.43;101339.98;1688658;84;21051;-79
2021/12/23 07:13:24;;;;;;;94.80;51.80;;;;;;;-1.75;80.39;101331.31;1688638;82;21051;-86
2021/12/23 07:15:51;;;;;;;78.75;45.33;;;;;;;-1.76;80.40;101330.82;1688282;82;21144;-87
2021/12/23 07:18:17;;;;;;;75.97;43.60;;;;;;;-1.78;80.38;101322.94;1688607;82;21083;-86
2021/12/23 07:20:44;;;;;;;118.80;66.28;;;;;;;-1.77;80.43;101328.60;1688191;83;21744;-81
2021/12/23 07:23:10;;;;;;;129.95;69.67;;;;;;;-1.75;80.44;101326.16;1688018;84;21152;-86
2021/12/23 07:25:37;;;;;;;103.05;58.40;;;;;;;-1.75;80.46;101323.58;1695685;83;21129;-90
2021/12/23 07:28:08;;;;;;;87.02;47.78;;;;;;;-1.73;80.50;101327.18;1691035;84;21064;-87
2021/12/23 07:30:33;;;;;;;80.50;44.75;;;;;;;-1.71;80.52;101321.76;1711994;81;21065;-86
2021/12/23 07:33:00;;;;;;;63.48;38.45;;;;;;;-1.70;80.46;101323.58;1706720;83;21765;-91
2021/12/23 07:35:27;;;;;;;62.85;37.38;;;;;;;-1.69;80.50;101322.81;1701937;81;21097;-80
2021/12/23 07:37:53;;;;;;;77.87;44.98;;;;;;;-1.67;80.47;101325.14;1722457;81;21062;-78
2021/12/23 07:40:20;;;;;;;65.25;41.55;;;;;;;-1.68;80.44;101322.42;1672048;84;21130;-87
2021/12/23 07:42:55;;;;;;;77.17;43.90;;;;;;;-1.70;80.37;101322.28;1698024;83;21065;-87
2021/12/23 07:45:24;;;;;;;72.25;41.48;;;;;;;-1.71;80.37;101315.30;1719687;81;21710;-87
2021/12/23 07:47:50;;;;;;;78.37;44.65;;;;;;;-1.66;80.46;101305.38;1691788;83;21121;-78
2021/12/23 07:50:17;;;;;;;70.85;42.30;;;;;;;-1.64;80.49;101303.83;1677415;85;21107;-77
2021/12/23 07:52:44;;;;;;;64.07;39.23;;;;;;;-1.58;80.54;101296.58;1683996;84;21077;-77
2021/12/23 07:55:11;;;;;;;70.67;40.05;;;;;;;-1.55;80.50;101294.26;1707334;83;21738;-84
2021/12/23 07:57:37;;;;;;;62.10;37.98;;;;;;;-1.50;80.48;101296.84;1699077;82;21794;-77
2021/12/23 08:00:06;;;;;;;66.30;37.73;;;;;;;-1.44;80.50;101283.12;1693439;83;21739;-84
2021/12/23 08:02:33;;;;;;;66.07;38.10;;;;;;;-1.38;80.41;101290.47;1695565;83;21100;-78
2021/12/23 08:05:00;;;;;;;62.03;36.08;;;;;;;-1.34;80.38;101289.05;1695154;83;21061;-76
2021/12/23 08:07:26;;;;;;;68.28;38.20;;;;;;;-1.32;80.33;101279.73;1704682;83;21162;-77
2021/12/23 08:09:53;;;;;;;59.83;35.60;;;;;;;-1.26;80.38;101281.52;1724110;81;21750;-77
2021/12/23 08:12:20;;;;;;;65.05;38.20;;;;;;;-1.21;80.33;101278.92;1730864;81;21067;-78
2021/12/23 08:14:47;;;;;;;82.30;44.25;;;;;;;-1.12;80.39;101270.62;1716887;81;21555;-77
2021/12/23 08:17:13;;;;;;;63.28;37.55;;;;;;;-1.03;80.38;101275.62;1715423;81;21089;-77
2021/12/23 08:19:40;;;;;;;66.87;39.88;;;;;;;-0.93;80.40;101265.23;1727411;81;21065;-77
2021/12/23 08:22:08;;;;;;;58.68;33.95;;;;;;;-0.82;80.27;101263.50;1740427;81;21747;-85
2021/12/23 08:24:35;;;;;;;67.60;38.10;;;;;;;-0.72;80.19;101268.59;1735124;80;21574;-77
2021/12/23 08:27:07;;;;;;;73.20;40.95;;;;;;;-0.64;80.04;101254.61;1732512;81;21394;-77
2021/12/23 08:29:34;;;;;;;69.90;38.63;;;;;;;-0.59;79.86;101248.08;1733759;81;21089;-75
2021/12/23 08:32:00;;;;;;;70.37;40.05;;;;;;;-0.53;79.76;101242.48;1727248;81;21101;-86
2021/12/23 08:34:27;;;;;;;62.78;37.00;;;;;;;-0.47;79.70;101244.64;1738319;80;21791;-77
2021/12/23 08:36:54;;;;;;;62.70;38.28;;;;;;;-0.42;79.69;101241.62;1715601;81;21131;-77
2021/12/23 08:39:20;;;;;;;80.87;45.17;;;;;;;-0.34;79.70;101241.31;1687840;81;21084;-84
2021/12/23 08:41:47;;;;;;;71.25;40.08;;;;;;;-0.26;79.73;101242.42;1707629;81;21068;-77
2021/12/23 08:44:13;;;;;;;79.40;44.20;;;;;;;-0.19;79.50;101243.77;1712960;82;21108;-78
2021/12/23 08:46:40;;;;;;;68.60;39.73;;;;;;;-0.11;79.35;101233.99;1713305;82;21746;-78
2021/12/23 08:49:07;;;;;;;67.62;38.85;;;;;;;-0.07;79.13;101231.77;1714273;83;21067;-84
2021/12/23 08:51:35;;;;;;;54.67;32.60;;;;;;;-0.02;79.14;101234.69;1714733;83;21025;-83
2021/12/23 08:54:02;;;;;;;69.65;38.83;;;;;;;0.04;79.04;101235.17;1713744;83;21541;-84
2021/12/23 08:56:29;;;;;;;67.17;39.48;;;;;;;0.07;78.89;101225.02;1713099;83;21099;-84
2021/12/23 08:58:56;;;;;;;72.25;42.15;;;;;;;0.09;78.94;101221.27;1712839;82;21803;-85
2021/12/23 09:01:23;;;;;;;58.58;33.83;;;;;;;0.16;78.79;101219.23;1715370;83;21572;-85
2021/12/23 09:03:50;;;;;;;64.42;35.35;;;;;;;0.18;78.62;101215.08;1716201;81;21036;-89
2021/12/23 09:06:16;;;;;;;60.38;34.38;;;;;;;0.23;78.60;101208.06;1715006;81;21579;-85
2021/12/23 09:08:43;;;;;;;58.13;33.35;;;;;;;0.25;78.36;101207.38;1745821;81;21030;-84
2021/12/23 09:11:10;;;;;;;55.70;31.73;;;;;;;0.28;78.10;101200.22;1748721;81;22482;-84
2021/12/23 09:13:36;;;;;;;52.33;31.02;;;;;;;0.31;78.15;101197.47;1731939;81;21113;-86
2021/12/23 09:16:03;;;;;;;47.15;27.93;;;;;;;0.34;77.89;101193.81;1740045;81;21068;-87
2021/12/23 09:18:30;;;;;;;56.15;32.23;;;;;;;0.43;78.05;101192.67;1715700;81;21086;-77
2021/12/23 09:20:57;;;;;;;52.20;31.73;;;;;;;0.49;77.88;101192.73;1711631;82;21102;-76
2021/12/23 09:23:23;;;;;;;53.13;30.90;;;;;;;0.51;77.70;101188.97;1716273;81;21751;-76
2021/12/23 09:25:51;;;;;;;53.48;32.30;;;;;;;0.56;77.72;101183.33;1715065;81;21084;-76
2021/12/23 09:33:29;;;;;;;59.30;33.23;;;;;;;0.68;77.27;101172.94;1713125;82;21088;-77
2021/12/23 09:35:56;;;;;;;54.40;29.92;;;;;;;0.65;77.01;101162.75;1714171;82;21760;-78
2021/12/23 09:38:27;;;;;;;65.60;37.60;;;;;;;0.64;77.06;101157.05;1713185;81;21085;-78
2021/12/23 09:40:51;;;;;;;65.10;35.15;;;;;;;0.68;77.08;101155.20;1707923;83;21123;-79
2021/12/23 09:43:18;;;;;;;54.03;32.78;;;;;;;0.70;76.86;101155.80;1714488;82;21076;-78
2021/12/23 09:45:46;;;;;;;49.48;29.10;;;;;;;0.65;76.63;101146.80;1671248;83;21064;-79
2021/12/23 09:48:14;;;;;;;54.48;32.58;;;;;;;0.63;76.61;101141.02;1689021;83;22621;-79
2021/12/23 09:50:41;;;;;;;55.73;33.92;;;;;;;0.56;76.51;101140.59;1712075;82;21087;-81
2021/12/23 09:53:08;;;;;;;65.85;38.65;;;;;;;0.55;76.42;101136.59;1713316;83;21162;-80
2021/12/23 09:55:36;;;;;;;73.10;41.35;;;;;;;0.53;76.47;101132.59;1713759;83;21532;-81
2021/12/23 09:58:04;;;;;;;62.95;36.80;;;;;;;0.55;76.49;101130.11;1713817;81;21088;-81
2021/12/23 10:00:33;;;;;;;58.00;34.23;;;;;;;0.55;76.46;101122.34;1712545;82;21860;-80
2021/12/23 10:03:20;;;;;;;48.55;30.85;;;;;;;0.53;76.38;101120.93;1714890;81;21599;-84
2021/12/23 10:05:47;;;;;;;45.98;29.92;;;;;;;0.57;76.45;101118.16;1686932;84;21125;-73
2021/12/23 10:08:15;;;;;;;47.08;29.85;;;;;;;0.58;76.28;101110.88;1691097;83;21101;-73
2021/12/23 10:10:53;;;;;;;66.20;39.05;;;;;;;0.60;76.23;101100.63;1628156;86;21105;-73
2021/12/23 10:27:44;;;;;;;42.98;26.65;;;;;;;0.68;75.99;101069.70;1676972;85;21798;-73
2021/12/23 10:38:15;;;;;;;41.53;26.68;;;;;;;0.78;75.79;101045.81;1677059;85;21268;-72
2021/12/23 10:40:47;;;;;;;43.30;25.40;;;;;;;0.82;75.78;101033.08;1677096;85;21756;-71
2021/12/23 10:43:31;;;;;;;45.15;27.22;;;;;;;0.87;75.84;101035.19;1682812;83;21110;-71
2021/12/23 10:46:13;;;;;;;44.53;27.30;;;;;;;0.92;75.72;101026.42;1636090;85;21117;-70
2021/12/23 10:49:04;;;;;;;44.27;29.32;;;;;;;0.96;75.69;101012.49;1657899;86;21044;-71
2021/12/23 10:51:22;;;;;;;48.23;30.43;;;;;;;1.03;75.68;101007.30;1655754;86;21537;-70
2021/12/23 10:53:57;;;;;;;50.10;34.70;;;;;;;1.09;75.63;101002.93;1657815;86;22438;-71
2021/12/23 10:59:20;;;;;;;50.88;32.70;;;;;;;1.11;75.46;100994.48;1658041;86;21097;-71
2021/12/23 11:02:16;;;;;;;48.70;30.05;;;;;;;1.14;75.30;100993.77;1674241;84;21144;-71
2021/12/23 11:05:10;;;;;;;49.13;30.20;;;;;;;1.11;75.22;100989.30;1674495;85;22957;-71
2021/12/23 11:07:54;;;;;;;53.98;34.15;;;;;;;1.10;75.04;100991.38;1671528;85;22989;-71
2021/12/23 11:10:19;;;;;;;53.42;33.05;;;;;;;1.03;74.94;100983.97;1670903;85;21116;-71
2021/12/23 11:30:31;;;;;;;65.10;40.90;;;;;;;1.07;75.06;100948.41;1673609;85;21098;-73
2021/12/23 11:38:22;;;;;;;52.15;33.85;;;;;;;0.99;74.79;100936.62;1673898;85;21083;-73
2021/12/23 11:45:47;;;;;;;45.83;29.65;;;;;;;0.81;74.73;100914.28;1681884;83;21396;-72
2021/12/23 11:48:14;;;;;;;48.98;30.80;;;;;;;0.82;74.83;100909.58;1660668;84;21512;-72
2021/12/23 11:50:53;;;;;;;51.55;30.92;;;;;;;0.78;74.76;100905.00;1671736;84;21096;-72
2021/12/23 11:53:10;;;;;;;48.52;31.17;;;;;;;0.74;74.65;100905.59;1670332;85;21144;-72
2021/12/23 11:55:37;;;;;;;59.80;34.73;;;;;;;0.70;74.79;100903.20;1681466;83;21126;-73
2021/12/23 11:58:04;;;;;;;54.20;33.63;;;;;;;0.65;74.97;100886.44;1713564;83;21109;-72
2021/12/23 12:00:42;;;;;;;50.38;30.72;;;;;;;0.77;75.01;100896.75;1659447;85;21754;-72
2021/12/23 12:03:04;;;;;;;49.90;32.93;;;;;;;0.77;74.92;100890.27;1681098;84;21433;-73
2021/12/23 12:05:32;;;;;;;54.80;35.55;;;;;;;0.81;75.02;100886.16;1663473;85;21150;-73
2021/12/23 12:08:11;;;;;;;54.40;33.92;;;;;;;0.85;75.16;100880.00;1653666;86;21767;-73
2021/12/23 12:10:38;;;;;;;55.92;33.55;;;;;;;0.88;75.13;100876.70;1629830;87;21098;-73
2021/12/23 12:13:07;;;;;;;53.10;34.05;;;;;;;0.89;74.87;100873.33;1629648;87;22628;-72
2021/12/23 12:15:48;;;;;;;48.23;30.95;;;;;;;0.88;74.77;100874.11;1625419;87;21096;-73
2021/12/23 12:18:21;;;;;;;47.05;29.42;;;;;;;0.87;74.69;100869.73;1650667;86;21755;-73
2021/12/23 12:20:56;;;;;;;48.65;30.97;;;;;;;0.84;74.57;100862.64;1671936;85;21050;-72